Airport Information

KNUW - Whidbey Island Nas Airport

KNUW 160656Z 11008KT 10SM SCT100 BKN170 BKN240 06/01 A2983 RMK AO2 SLP100 T00560006 $


  • General Information

  • Coordinates: N 48°21'6"/ W 122°39'21"
  • Location: N/A
  • Surveyed Elevation: 47 MSL

Operations

Flow Name Active Runways Conditions

Green background denotes normal operations.


Common Frequencies

Callsign Frequency Position Name

More at the Document Center


Charts